Silver Star Mountain, Canada
Current Conditions -  °F | °C
As of 10:00 AM on Saturday 25 Oct 2014 (Local Time) from CYLW Reporting Station
Overcast Overcast  
Wind Chill: 46°   Ceiling: 7500
Heat Index: 46°   Visibility: 9mi
Dew Point: 41°   Wind: 2mph
Humidity: 81%   Direction: NA
Pressure: 29.65"   Gusts: NA
Location:  50.36°N, 119.07°W
Report Text: CYLW 251700Z AUTO VRB02KT 9SM OVC075 08/05 A2965 RMK PRESFR SLP051
Loading
Personal Weather Stations






























Interactive Weather Map
Tropical Storm Tracking
New forecast layout! Learn more

10-Day Weather Forecast

Advertisements
Track Severe Weather on mobile